Time;durP1;ratioP1;P1;durP2;ratioP2;P2;SDS_P1;SDS_P2;PMS_P1;PMS_P2;Temp;Humidity;BMP_temperature;BMP_pressure;BME280_temperature;BME280_humidity;BME280_pressure;Samples;Min_cycle;Max_cycle;Signal;HPM_P1;HPM_P2
2023/09/10 00:01:14;;;;;;;21.83;13.10;;;;;;;;;;5059161;28;20012;-82
2023/09/10 00:03:39;;;;;;;20.05;12.93;;;;;;;;;;5072789;28;20027;-82
2023/09/10 00:06:05;;;;;;;21.33;13.07;;;;;;;;;;5072065;28;20035;-82
2023/09/10 00:08:31;;;;;;;20.33;12.48;;;;;;;;;;5073035;28;20070;-82
2023/09/10 00:10:56;;;;;;;23.58;12.65;;;;;;;;;;5066116;28;20025;-82
2023/09/10 00:13:22;;;;;;;23.40;12.90;;;;;;;;;;5075138;28;20028;-82
2023/09/10 00:15:48;;;;;;;21.42;12.90;;;;;;;;;;5074904;28;20046;-82
2023/09/10 00:18:14;;;;;;;18.52;12.40;;;;;;;;;;5074118;28;20051;-82
2023/09/10 00:20:40;;;;;;;21.42;11.65;;;;;;;;;;5073651;28;20032;-81
2023/09/10 00:23:07;;;;;;;16.63;11.88;;;;;;;;;;5076249;28;20013;-82
2023/09/10 00:25:33;;;;;;;19.13;11.88;;;;;;;;;;5074244;28;20032;-81
2023/09/10 00:27:59;;;;;;;22.33;12.55;;;;;;;;;;5074406;28;20693;-82
2023/09/10 00:30:26;;;;;;;19.80;12.55;;;;;;;;;;5072459;28;20116;-82
2023/09/10 00:32:51;;;;;;;21.20;12.13;;;;;;;;;;5062243;28;20443;-82
2023/09/10 00:35:17;;;;;;;22.98;12.05;;;;;;;;;;5071534;28;20043;-82
2023/09/10 00:37:42;;;;;;;19.30;11.50;;;;;;;;;;5072623;28;20035;-83
2023/09/10 00:40:08;;;;;;;20.73;11.77;;;;;;;;;;5070932;28;20025;-82
2023/09/10 00:42:34;;;;;;;20.50;12.77;;;;;;;;;;5072203;28;20028;-82
2023/09/10 00:44:59;;;;;;;20.35;12.25;;;;;;;;;;5073572;28;20020;-82
2023/09/10 00:47:25;;;;;;;18.77;12.40;;;;;;;;;;5071702;28;20057;-81
2023/09/10 00:49:50;;;;;;;21.15;13.35;;;;;;;;;;5060764;28;20037;-82
2023/09/10 00:52:16;;;;;;;18.95;13.30;;;;;;;;;;5069092;28;20020;-82
2023/09/10 00:54:42;;;;;;;22.20;12.63;;;;;;;;;;5073056;28;20544;-81
2023/09/10 00:57:07;;;;;;;23.40;13.38;;;;;;;;;;5071360;28;20031;-80
2023/09/10 00:59:33;;;;;;;25.80;14.63;;;;;;;;;;5070980;28;20021;-82
2023/09/10 01:01:58;;;;;;;21.48;13.88;;;;;;;;;;5072710;28;20016;-82
2023/09/10 01:04:24;;;;;;;22.10;13.45;;;;;;;;;;5072726;28;20098;-82
2023/09/10 01:06:52;;;;;;;21.35;14.18;;;;;;;;;;5070894;28;20027;-82
2023/09/10 01:09:18;;;;;;;20.77;12.43;;;;;;;;;;5069540;28;20039;-81
2023/09/10 01:11:43;;;;;;;19.23;12.82;;;;;;;;;;5070488;28;20024;-82
2023/09/10 01:14:18;;;;;;;24.58;13.32;;;;;;;;;;5071063;28;20034;-82
2023/09/10 01:16:47;;;;;;;25.50;13.93;;;;;;;;;;5070932;28;20417;-82
2023/09/10 01:19:35;;;;;;;21.83;14.10;;;;;;;;;;5070192;28;20024;-82
2023/09/10 01:22:05;;;;;;;20.55;13.68;;;;;;;;;;5070729;28;20100;-82
2023/09/10 01:24:43;;;;;;;25.73;13.13;;;;;;;;;;5072985;28;20414;-81
2023/09/10 01:27:09;;;;;;;20.23;13.30;;;;;;;;;;5071451;28;20051;-81
2023/09/10 01:29:34;;;;;;;21.83;14.05;;;;;;;;;;5072073;28;20119;-82
2023/09/10 01:32:00;;;;;;;20.27;12.48;;;;;;;;;;5067455;28;20392;-82
2023/09/10 01:34:30;;;;;;;20.60;14.43;;;;;;;;;;5061930;28;20101;-81
2023/09/10 01:37:19;;;;;;;21.95;13.68;;;;;;;;;;5071646;28;20131;-82
2023/09/10 01:39:46;;;;;;;22.45;13.93;;;;;;;;;;5072331;28;20161;-82
2023/09/10 01:42:15;;;;;;;20.17;13.73;;;;;;;;;;5075019;28;20005;-81
2023/09/10 01:44:44;;;;;;;23.77;14.02;;;;;;;;;;5073309;28;20805;-82
2023/09/10 01:47:09;;;;;;;24.80;13.63;;;;;;;;;;5074785;28;20025;-82
2023/09/10 01:49:35;;;;;;;20.92;13.77;;;;;;;;;;5068604;28;20036;-81
2023/09/10 01:52:00;;;;;;;23.50;13.65;;;;;;;;;;5065396;28;20027;-81
2023/09/10 01:54:25;;;;;;;18.15;12.38;;;;;;;;;;5058590;28;20021;-82
2023/09/10 01:56:51;;;;;;;24.05;14.32;;;;;;;;;;5071735;28;20463;-82
2023/09/10 01:59:16;;;;;;;22.85;14.15;;;;;;;;;;5071967;28;20025;-82
2023/09/10 02:01:41;;;;;;;22.85;13.45;;;;;;;;;;5074446;28;20490;-81
2023/09/10 02:04:09;;;;;;;27.92;13.45;;;;;;;;;;5074648;28;20017;-81
2023/09/10 02:06:37;;;;;;;22.15;14.10;;;;;;;;;;5076021;28;20091;-81
2023/09/10 02:09:03;;;;;;;21.33;13.80;;;;;;;;;;5073943;28;20392;-82
2023/09/10 02:11:28;;;;;;;23.02;14.50;;;;;;;;;;5074339;28;20025;-81
2023/09/10 02:13:53;;;;;;;21.42;13.23;;;;;;;;;;5075925;28;20467;-81
2023/09/10 02:16:19;;;;;;;23.65;14.20;;;;;;;;;;5073684;28;20067;-81
2023/09/10 02:18:44;;;;;;;26.02;14.20;;;;;;;;;;5074741;28;20033;-82
2023/09/10 02:21:10;;;;;;;22.25;14.15;;;;;;;;;;5072848;28;20025;-82
2023/09/10 02:23:36;;;;;;;25.92;14.05;;;;;;;;;;5075769;28;20052;-82
2023/09/10 02:26:01;;;;;;;23.08;15.02;;;;;;;;;;5074058;28;20046;-81
2023/09/10 02:28:27;;;;;;;24.98;12.98;;;;;;;;;;5074452;28;20031;-82
2023/09/10 02:30:53;;;;;;;19.35;12.32;;;;;;;;;;5074429;28;20329;-82
2023/09/10 02:33:18;;;;;;;21.42;13.00;;;;;;;;;;5059678;28;20025;-81
2023/09/10 02:35:43;;;;;;;20.52;12.07;;;;;;;;;;5074024;28;20463;-82
2023/09/10 02:38:09;;;;;;;22.25;12.98;;;;;;;;;;5074111;28;20074;-82
2023/09/10 02:40:36;;;;;;;19.90;11.75;;;;;;;;;;5073178;28;20432;-81
2023/09/10 02:43:02;;;;;;;22.75;11.23;;;;;;;;;;5074084;28;20025;-82
2023/09/10 02:45:27;;;;;;;17.90;11.60;;;;;;;;;;5073910;28;20023;-82
2023/09/10 02:47:52;;;;;;;20.55;11.85;;;;;;;;;;5075499;28;20124;-82
2023/09/10 02:50:18;;;;;;;21.20;12.43;;;;;;;;;;5063727;28;20045;-81
2023/09/10 02:52:43;;;;;;;18.95;12.55;;;;;;;;;;5074290;28;20012;-82
2023/09/10 02:55:09;;;;;;;23.17;12.20;;;;;;;;;;5076270;28;20412;-82
2023/09/10 02:57:34;;;;;;;19.67;12.65;;;;;;;;;;5073721;28;20031;-82
2023/09/10 03:00:00;;;;;;;21.98;13.20;;;;;;;;;;5071431;28;20059;-81
2023/09/10 03:02:25;;;;;;;21.27;12.73;;;;;;;;;;5060011;28;20032;-81
2023/09/10 03:04:53;;;;;;;25.50;12.98;;;;;;;;;;5063833;28;20008;-82
2023/09/10 03:07:18;;;;;;;21.00;12.60;;;;;;;;;;5062565;28;20372;-82
2023/09/10 03:09:44;;;;;;;20.80;13.63;;;;;;;;;;5069997;28;20029;-81
2023/09/10 03:12:20;;;;;;;26.33;13.95;;;;;;;;;;5067905;28;20502;-81
2023/09/10 03:14:45;;;;;;;27.33;14.27;;;;;;;;;;5078174;28;20474;-81
2023/09/10 03:17:11;;;;;;;22.52;13.60;;;;;;;;;;5072752;28;20085;-82
2023/09/10 03:19:39;;;;;;;21.50;13.27;;;;;;;;;;5062326;28;20106;-82
2023/09/10 03:22:04;;;;;;;22.90;13.32;;;;;;;;;;5074862;28;20396;-81
2023/09/10 03:24:38;;;;;;;18.70;12.55;;;;;;;;;;5073820;28;20031;-81
2023/09/10 03:27:03;;;;;;;18.90;12.30;;;;;;;;;;5072345;28;20076;-82
2023/09/10 03:29:30;;;;;;;24.35;11.73;;;;;;;;;;5073949;28;20032;-82
2023/09/10 03:31:55;;;;;;;19.05;12.35;;;;;;;;;;5073501;28;20051;-82
2023/09/10 03:34:21;;;;;;;20.83;11.93;;;;;;;;;;5073311;28;20021;-82
2023/09/10 03:36:46;;;;;;;23.60;12.15;;;;;;;;;;5058928;28;20028;-82
2023/09/10 03:39:12;;;;;;;22.17;11.93;;;;;;;;;;5072917;28;20032;-82
2023/09/10 03:41:37;;;;;;;17.58;11.98;;;;;;;;;;5058393;28;20465;-82
2023/09/10 03:44:03;;;;;;;27.65;13.02;;;;;;;;;;5066717;28;20017;-82
2023/09/10 03:46:28;;;;;;;20.48;12.00;;;;;;;;;;5064668;28;20111;-82
2023/09/10 03:48:53;;;;;;;20.10;12.02;;;;;;;;;;5072141;28;20023;-82
2023/09/10 03:51:19;;;;;;;22.70;12.60;;;;;;;;;;5072380;28;20480;-82
2023/09/10 03:53:44;;;;;;;20.63;12.88;;;;;;;;;;5072395;28;20020;-80
2023/09/10 03:56:11;;;;;;;20.40;13.10;;;;;;;;;;5072580;28;20025;-81
2023/09/10 03:58:37;;;;;;;20.92;12.80;;;;;;;;;;5070375;28;20762;-81
2023/09/10 04:01:02;;;;;;;23.52;14.15;;;;;;;;;;5071697;28;20031;-82
2023/09/10 04:03:27;;;;;;;24.15;14.02;;;;;;;;;;5074058;28;20013;-82
2023/09/10 04:05:53;;;;;;;21.65;13.68;;;;;;;;;;5072333;28;20017;-81
2023/09/10 04:08:18;;;;;;;21.13;13.77;;;;;;;;;;5072393;28;20029;-82
2023/09/10 04:10:46;;;;;;;23.73;14.07;;;;;;;;;;5066039;28;20013;-82
2023/09/10 04:13:14;;;;;;;27.13;14.50;;;;;;;;;;5072540;28;20017;-82
2023/09/10 04:15:39;;;;;;;26.50;14.88;;;;;;;;;;5073451;28;20370;-81
2023/09/10 04:18:05;;;;;;;24.40;14.55;;;;;;;;;;5072353;28;20368;-82
2023/09/10 04:20:31;;;;;;;21.45;13.82;;;;;;;;;;5073346;28;20023;-82
2023/09/10 04:22:59;;;;;;;24.92;14.82;;;;;;;;;;5074639;28;20008;-82
2023/09/10 04:25:25;;;;;;;25.17;14.98;;;;;;;;;;5064881;28;20086;-82
2023/09/10 04:27:53;;;;;;;28.48;15.93;;;;;;;;;;5069731;28;20440;-81
2023/09/10 04:30:18;;;;;;;21.63;14.40;;;;;;;;;;5075086;28;20383;-81
2023/09/10 04:32:44;;;;;;;24.10;14.65;;;;;;;;;;5077583;28;20025;-81
2023/09/10 04:35:10;;;;;;;26.73;15.05;;;;;;;;;;5075329;28;20028;-82
2023/09/10 04:37:36;;;;;;;21.33;14.18;;;;;;;;;;5077762;28;20017;-81
2023/09/10 04:40:05;;;;;;;24.23;15.10;;;;;;;;;;5071971;28;20028;-82
2023/09/10 04:42:30;;;;;;;26.48;15.10;;;;;;;;;;5076433;28;20017;-82
2023/09/10 04:45:03;;;;;;;25.80;15.10;;;;;;;;;;5070649;28;20020;-81
2023/09/10 04:47:29;;;;;;;24.45;14.70;;;;;;;;;;5072181;28;20507;-81
2023/09/10 04:49:54;;;;;;;25.23;14.95;;;;;;;;;;5071904;28;20028;-82
2023/09/10 04:52:19;;;;;;;24.75;14.57;;;;;;;;;;5072095;28;20111;-82
2023/09/10 04:54:45;;;;;;;23.77;15.15;;;;;;;;;;5072409;28;20078;-80
2023/09/10 04:57:10;;;;;;;27.45;14.90;;;;;;;;;;5072793;28;20016;-81
2023/09/10 04:59:35;;;;;;;26.25;14.68;;;;;;;;;;5071416;28;20021;-80
2023/09/10 05:02:01;;;;;;;24.05;14.10;;;;;;;;;;5071707;28;20087;-81
2023/09/10 05:04:27;;;;;;;23.05;14.65;;;;;;;;;;5071841;28;20017;-82
2023/09/10 05:06:52;;;;;;;19.30;13.73;;;;;;;;;;5071588;28;20374;-82
2023/09/10 05:09:17;;;;;;;25.17;14.68;;;;;;;;;;5069771;28;20028;-82
2023/09/10 05:11:43;;;;;;;23.65;13.43;;;;;;;;;;5069033;28;20021;-82
2023/09/10 05:14:08;;;;;;;24.27;15.45;;;;;;;;;;5072352;28;20032;-82
2023/09/10 05:16:33;;;;;;;22.95;14.07;;;;;;;;;;5070252;28;20032;-82
2023/09/10 05:18:58;;;;;;;19.38;12.85;;;;;;;;;;5072569;28;20523;-82
2023/09/10 05:21:24;;;;;;;19.17;14.05;;;;;;;;;;5071731;28;20464;-81
2023/09/10 05:23:50;;;;;;;25.83;14.43;;;;;;;;;;5071163;28;20024;-81
2023/09/10 05:26:24;;;;;;;23.42;15.43;;;;;;;;;;5070039;28;20020;-82
2023/09/10 05:28:49;;;;;;;27.33;14.88;;;;;;;;;;5071293;28;20020;-83
2023/09/10 05:31:17;;;;;;;23.60;14.32;;;;;;;;;;5071358;28;20487;-83
2023/09/10 05:33:42;;;;;;;23.15;13.57;;;;;;;;;;5073216;28;20020;-83
2023/09/10 05:36:08;;;;;;;26.58;14.10;;;;;;;;;;5071565;28;20039;-83
2023/09/10 05:38:33;;;;;;;28.10;14.32;;;;;;;;;;5058783;28;20085;-83
2023/09/10 05:41:03;;;;;;;22.92;14.05;;;;;;;;;;5072285;28;20021;-83
2023/09/10 05:43:31;;;;;;;22.73;14.52;;;;;;;;;;5073349;28;20462;-83
2023/09/10 05:46:02;;;;;;;25.00;13.30;;;;;;;;;;5073696;28;20027;-83
2023/09/10 05:48:27;;;;;;;22.95;14.05;;;;;;;;;;5074465;28;20036;-83
2023/09/10 05:50:56;;;;;;;22.05;13.90;;;;;;;;;;5074022;28;20020;-84
2023/09/10 05:53:22;;;;;;;27.13;13.50;;;;;;;;;;5075503;28;20020;-83
2023/09/10 05:55:50;;;;;;;19.27;12.45;;;;;;;;;;5072423;28;20036;-83
2023/09/10 05:58:15;;;;;;;21.17;12.98;;;;;;;;;;5065363;28;20402;-83
2023/09/10 06:00:43;;;;;;;28.50;13.57;;;;;;;;;;5071727;28;20017;-83
2023/09/10 06:03:09;;;;;;;22.30;13.50;;;;;;;;;;5066035;28;20024;-83
2023/09/10 06:05:35;;;;;;;19.42;13.00;;;;;;;;;;5071914;28;20763;-83
2023/09/10 06:08:00;;;;;;;27.10;12.82;;;;;;;;;;5084107;28;20067;-83
2023/09/10 06:10:25;;;;;;;20.90;12.73;;;;;;;;;;5062485;28;20027;-83
2023/09/10 06:12:51;;;;;;;23.58;12.55;;;;;;;;;;5061627;28;20077;-83
2023/09/10 06:15:16;;;;;;;24.00;13.30;;;;;;;;;;5068302;28;20020;-84
2023/09/10 06:17:41;;;;;;;21.30;12.23;;;;;;;;;;5068530;28;20059;-84
2023/09/10 06:20:07;;;;;;;22.33;13.10;;;;;;;;;;5070699;28;20078;-83
2023/09/10 06:22:32;;;;;;;24.88;13.27;;;;;;;;;;5062676;28;20017;-83
2023/09/10 06:24:58;;;;;;;22.52;13.13;;;;;;;;;;5070916;28;20013;-84
2023/09/10 06:27:23;;;;;;;21.02;12.43;;;;;;;;;;5066644;28;20021;-83
2023/09/10 06:29:48;;;;;;;18.10;11.88;;;;;;;;;;5083793;28;20048;-84
2023/09/10 06:32:13;;;;;;;21.25;13.05;;;;;;;;;;5070085;28;20028;-83
2023/09/10 06:34:39;;;;;;;21.35;12.90;;;;;;;;;;5066892;28;20063;-83
2023/09/10 06:37:07;;;;;;;24.08;12.73;;;;;;;;;;5057751;28;20040;-84
2023/09/10 06:39:38;;;;;;;18.48;12.50;;;;;;;;;;5070312;28;20035;-84
2023/09/10 06:42:08;;;;;;;22.33;11.82;;;;;;;;;;5070365;28;20051;-83
2023/09/10 06:44:33;;;;;;;15.55;10.85;;;;;;;;;;5070687;28;20075;-84
2023/09/10 06:46:59;;;;;;;24.83;12.13;;;;;;;;;;5072160;28;20476;-83
2023/09/10 06:49:25;;;;;;;19.65;12.20;;;;;;;;;;5074221;28;20045;-84
2023/09/10 06:51:50;;;;;;;18.95;10.93;;;;;;;;;;5073601;28;20020;-84
2023/09/10 06:54:15;;;;;;;18.65;11.32;;;;;;;;;;5074225;28;20020;-83
2023/09/10 06:56:44;;;;;;;18.45;10.98;;;;;;;;;;5069681;28;20025;-84
2023/09/10 06:59:09;;;;;;;19.60;10.98;;;;;;;;;;5067863;28;20179;-83
2023/09/10 07:01:37;;;;;;;22.85;11.00;;;;;;;;;;5073101;28;20066;-83
2023/09/10 07:04:15;;;;;;;19.77;11.90;;;;;;;;;;5065625;28;20012;-83
2023/09/10 07:06:42;;;;;;;19.38;11.00;;;;;;;;;;5071856;28;20435;-84
2023/09/10 07:09:08;;;;;;;20.40;11.52;;;;;;;;;;5071014;28;20028;-83
2023/09/10 07:11:33;;;;;;;19.70;10.30;;;;;;;;;;5057346;28;20099;-84
2023/09/10 07:14:04;;;;;;;19.15;10.18;;;;;;;;;;5071787;28;20020;-83
2023/09/10 07:16:30;;;;;;;15.10;9.60;;;;;;;;;;5100998;28;20036;-83
2023/09/10 07:18:55;;;;;;;21.70;10.98;;;;;;;;;;5071477;28;20089;-83
2023/09/10 07:21:21;;;;;;;19.63;10.15;;;;;;;;;;5066377;28;20025;-84
2023/09/10 07:23:46;;;;;;;16.65;10.18;;;;;;;;;;5075973;28;20020;-83
2023/09/10 07:26:11;;;;;;;15.90;9.63;;;;;;;;;;5061170;28;20074;-83
2023/09/10 07:28:37;;;;;;;15.80;9.60;;;;;;;;;;5064782;28;20111;-83
2023/09/10 07:31:07;;;;;;;19.83;9.02;;;;;;;;;;5055697;28;20021;-82
2023/09/10 07:33:33;;;;;;;17.08;9.45;;;;;;;;;;5056665;28;20109;-83
2023/09/10 07:35:58;;;;;;;18.88;9.00;;;;;;;;;;5063548;28;20103;-83
2023/09/10 07:38:23;;;;;;;16.92;9.13;;;;;;;;;;5059039;28;20063;-83
2023/09/10 07:40:56;;;;;;;17.00;8.95;;;;;;;;;;5061542;28;20025;-83
2023/09/10 07:43:25;;;;;;;16.85;9.10;;;;;;;;;;5061690;28;20112;-83
2023/09/10 07:45:50;;;;;;;21.92;8.27;;;;;;;;;;5062258;28;20021;-84
2023/09/10 07:48:15;;;;;;;18.10;8.65;;;;;;;;;;5059686;28;20491;-82
2023/09/10 07:50:41;;;;;;;15.15;8.50;;;;;;;;;;5065833;28;20112;-84
2023/09/10 07:53:06;;;;;;;11.57;7.97;;;;;;;;;;5058302;28;20090;-87
2023/09/10 07:55:34;;;;;;;17.65;8.57;;;;;;;;;;5067716;28;20028;-87
2023/09/10 07:57:59;;;;;;;15.77;8.15;;;;;;;;;;5061215;28;20341;-85
2023/09/10 08:00:27;;;;;;;16.23;8.57;;;;;;;;;;5069086;28;20013;-86
2023/09/10 08:02:52;;;;;;;16.20;8.27;;;;;;;;;;5069552;28;20439;-86
2023/09/10 08:05:17;;;;;;;12.18;8.35;;;;;;;;;;5061231;28;20041;-85
2023/09/10 08:07:43;;;;;;;17.48;9.05;;;;;;;;;;5066053;28;20121;-83
2023/09/10 08:10:08;;;;;;;12.48;8.15;;;;;;;;;;5052668;28;20027;-83
2023/09/10 08:12:34;;;;;;;14.20;8.43;;;;;;;;;;5068514;28;20017;-83
2023/09/10 08:14:59;;;;;;;15.07;8.75;;;;;;;;;;5064969;28;20029;-83
2023/09/10 08:17:24;;;;;;;21.38;9.65;;;;;;;;;;5071271;28;20253;-81
2023/09/10 08:19:52;;;;;;;23.88;9.63;;;;;;;;;;5069943;28;20021;-82
2023/09/10 08:22:19;;;;;;;13.82;9.10;;;;;;;;;;5067284;28;20047;-83
2023/09/10 08:24:46;;;;;;;14.40;8.65;;;;;;;;;;5071596;28;20091;-83
2023/09/10 08:27:12;;;;;;;14.57;8.02;;;;;;;;;;5071821;28;20020;-83
2023/09/10 08:29:38;;;;;;;15.95;8.63;;;;;;;;;;5073881;28;20444;-83
2023/09/10 08:32:04;;;;;;;13.32;8.88;;;;;;;;;;5063455;28;20020;-83
2023/09/10 08:34:32;;;;;;;16.15;8.65;;;;;;;;;;5073583;28;20038;-83
2023/09/10 08:36:57;;;;;;;15.90;8.60;;;;;;;;;;5072053;28;20032;-83
2023/09/10 08:39:23;;;;;;;14.60;8.48;;;;;;;;;;5068114;28;20029;-83
2023/09/10 08:41:51;;;;;;;13.52;7.88;;;;;;;;;;5075597;28;20012;-82
2023/09/10 08:44:19;;;;;;;13.77;8.60;;;;;;;;;;5077017;28;20020;-83
2023/09/10 08:46:48;;;;;;;13.25;7.90;;;;;;;;;;5075838;28;20019;-83
2023/09/10 08:49:14;;;;;;;11.07;7.63;;;;;;;;;;5068593;28;20124;-83
2023/09/10 08:51:40;;;;;;;21.75;8.48;;;;;;;;;;5068157;28;20404;-83
2023/09/10 08:54:09;;;;;;;21.02;9.50;;;;;;;;;;5074706;28;20421;-83
2023/09/10 08:56:35;;;;;;;20.25;9.70;;;;;;;;;;5072521;28;20028;-83
2023/09/10 08:59:03;;;;;;;18.70;8.77;;;;;;;;;;5067879;28;20093;-83
2023/09/10 09:01:28;;;;;;;11.43;8.50;;;;;;;;;;5062568;28;20380;-84
2023/09/10 09:03:57;;;;;;;14.43;7.95;;;;;;;;;;5071126;28;20012;-83
2023/09/10 09:06:23;;;;;;;13.32;8.00;;;;;;;;;;5073277;28;20042;-84
2023/09/10 09:08:50;;;;;;;17.23;9.30;;;;;;;;;;5066431;28;20024;-83
2023/09/10 09:11:15;;;;;;;24.23;9.57;;;;;;;;;;5066753;28;20476;-83
2023/09/10 09:13:43;;;;;;;16.00;8.50;;;;;;;;;;5070835;28;20025;-83
2023/09/10 09:16:12;;;;;;;14.95;7.95;;;;;;;;;;5070258;28;20119;-83
2023/09/10 09:18:39;;;;;;;16.77;8.00;;;;;;;;;;5069945;28;20395;-83
2023/09/10 09:21:10;;;;;;;13.18;7.38;;;;;;;;;;5070124;28;20035;-83
2023/09/10 09:23:37;;;;;;;14.43;7.53;;;;;;;;;;5079501;28;20379;-83
2023/09/10 09:26:04;;;;;;;17.20;7.85;;;;;;;;;;5073487;28;20028;-83
2023/09/10 09:28:30;;;;;;;19.02;7.53;;;;;;;;;;5072306;28;20025;-82
2023/09/10 09:30:55;;;;;;;13.50;7.93;;;;;;;;;;5070231;28;20063;-83
2023/09/10 09:33:24;;;;;;;23.42;9.13;;;;;;;;;;5071876;28;20025;-83
2023/09/10 09:35:49;;;;;;;20.23;10.60;;;;;;;;;;5069668;28;20496;-83
2023/09/10 09:38:15;;;;;;;18.13;10.23;;;;;;;;;;5069794;28;20087;-83
2023/09/10 09:40:41;;;;;;;19.23;8.05;;;;;;;;;;5070979;28;20012;-83
2023/09/10 09:43:10;;;;;;;12.40;7.22;;;;;;;;;;5065047;28;20024;-83
2023/09/10 09:45:35;;;;;;;13.38;7.28;;;;;;;;;;5070344;28;20127;-83
2023/09/10 09:48:02;;;;;;;15.07;8.20;;;;;;;;;;5070130;28;20462;-81
2023/09/10 09:50:27;;;;;;;29.45;8.50;;;;;;;;;;5066746;28;20095;-83
2023/09/10 09:52:54;;;;;;;22.25;10.05;;;;;;;;;;5065422;28;20485;-83
2023/09/10 09:55:19;;;;;;;12.80;8.57;;;;;;;;;;5070717;28;20032;-81
2023/09/10 09:57:48;;;;;;;15.60;8.68;;;;;;;;;;5070492;28;20132;-83
2023/09/10 10:00:14;;;;;;;15.57;8.13;;;;;;;;;;5069669;28;20070;-83
2023/09/10 10:02:39;;;;;;;13.57;7.22;;;;;;;;;;5073087;28;20483;-83
2023/09/10 10:05:08;;;;;;;15.32;8.38;;;;;;;;;;5071045;28;20021;-82
2023/09/10 10:07:40;;;;;;;19.27;11.20;;;;;;;;;;5071304;28;20383;-83
2023/09/10 10:10:07;;;;;;;19.50;9.38;;;;;;;;;;5067269;28;20020;-83
2023/09/10 10:12:33;;;;;;;15.13;7.30;;;;;;;;;;5071017;28;20432;-82
2023/09/10 10:14:59;;;;;;;19.48;7.85;;;;;;;;;;5070535;28;20020;-82
2023/09/10 10:17:25;;;;;;;20.00;7.47;;;;;;;;;;5069367;28;20028;-82
2023/09/10 10:19:50;;;;;;;12.65;6.85;;;;;;;;;;5070937;28;20541;-83
2023/09/10 10:22:15;;;;;;;12.68;8.02;;;;;;;;;;5072493;28;20028;-82
2023/09/10 10:24:41;;;;;;;15.00;7.25;;;;;;;;;;5074798;28;20597;-83
2023/09/10 10:27:07;;;;;;;14.73;7.30;;;;;;;;;;5074677;28;20020;-83
2023/09/10 10:29:33;;;;;;;23.83;10.20;;;;;;;;;;5074335;28;20371;-83
2023/09/10 10:32:07;;;;;;;18.35;7.90;;;;;;;;;;5075151;28;20111;-83
2023/09/10 10:34:39;;;;;;;10.63;7.50;;;;;;;;;;5061750;28;20028;-83
2023/09/10 10:37:04;;;;;;;;;;;;;;;;;;5069496;28;20415;-83
2023/09/10 10:39:48;;;;;;;12.43;6.67;;;;;;;;;;5075324;28;19909;-83
2023/09/10 10:42:16;;;;;;;18.85;8.07;;;;;;;;;;5074008;28;20706;-84
2023/09/10 10:44:42;;;;;;;21.65;10.52;;;;;;;;;;5074024;28;20013;-83
2023/09/10 10:47:07;;;;;;;14.65;7.85;;;;;;;;;;5074056;28;20117;-83
2023/09/10 10:49:33;;;;;;;20.80;8.27;;;;;;;;;;5075244;28;20152;-82
2023/09/10 10:52:01;;;;;;;19.23;10.35;;;;;;;;;;5072016;28;20028;-81
2023/09/10 10:54:28;;;;;;;12.27;8.13;;;;;;;;;;5069847;28;20105;-81
2023/09/10 10:56:53;;;;;;;10.90;6.47;;;;;;;;;;5071539;28;20024;-79
2023/09/10 10:59:19;;;;;;;12.48;6.30;;;;;;;;;;5074469;28;20095;-80
2023/09/10 11:02:03;;;;;;;11.27;6.28;;;;;;;;;;5073273;28;20021;-80
2023/09/10 11:04:28;;;;;;;12.95;6.90;;;;;;;;;;5073245;28;20099;-79
2023/09/10 11:07:13;;;;;;;13.63;6.85;;;;;;;;;;5072894;28;20040;-80
2023/09/10 11:09:38;;;;;;;15.25;6.57;;;;;;;;;;5066978;28;20048;-79
2023/09/10 11:12:06;;;;;;;20.23;9.25;;;;;;;;;;5072508;28;20059;-80
2023/09/10 11:14:51;;;;;;;17.27;8.20;;;;;;;;;;5072395;28;20416;-79
2023/09/10 11:17:24;;;;;;;12.85;6.78;;;;;;;;;;5071691;28;20423;-79
2023/09/10 11:19:52;;;;;;;12.20;6.55;;;;;;;;;;5065431;28;20016;-79
2023/09/10 11:22:17;;;;;;;10.98;6.30;;;;;;;;;;5072144;28;20017;-78
2023/09/10 11:24:58;;;;;;;12.27;6.60;;;;;;;;;;5075142;28;20025;-79
2023/09/10 11:27:26;;;;;;;14.88;7.30;;;;;;;;;;5108918;27;20036;-79
2023/09/10 11:30:05;;;;;;;14.27;6.78;;;;;;;;;;5074892;28;20024;-79
2023/09/10 11:32:30;;;;;;;17.58;7.70;;;;;;;;;;5072228;28;20063;-78
2023/09/10 11:35:17;;;;;;;13.60;6.72;;;;;;;;;;5060707;28;20020;-78
2023/09/10 11:37:50;;;;;;;21.15;7.85;;;;;;;;;;5071965;28;20128;-79
2023/09/10 11:40:16;;;;;;;19.50;7.38;;;;;;;;;;5052299;28;20021;-78
2023/09/10 11:42:45;;;;;;;15.43;7.68;;;;;;;;;;5063685;28;20108;-80
2023/09/10 11:45:11;;;;;;;16.60;7.00;;;;;;;;;;5071873;28;20408;-79
2023/09/10 11:47:46;;;;;;;16.73;9.43;;;;;;;;;;5073585;28;20060;-79
2023/09/10 11:50:13;;;;;;;19.90;8.02;;;;;;;;;;5071041;28;20020;-79
2023/09/10 11:52:39;;;;;;;11.27;6.20;;;;;;;;;;5072692;28;20380;-78
2023/09/10 11:55:10;;;;;;;12.50;6.00;;;;;;;;;;5074307;28;20024;-79
2023/09/10 11:57:36;;;;;;;14.10;5.57;;;;;;;;;;5073053;28;20020;-79
2023/09/10 12:00:02;;;;;;;8.57;5.38;;;;;;;;;;5071752;28;20024;-79
2023/09/10 12:02:28;;;;;;;14.88;5.80;;;;;;;;;;5062955;28;20439;-80
2023/09/10 12:04:58;;;;;;;10.02;5.78;;;;;;;;;;5072816;28;20075;-79
2023/09/10 12:07:23;;;;;;;19.67;5.72;;;;;;;;;;5057850;28;20012;-80
2023/09/10 12:09:51;;;;;;;10.40;5.95;;;;;;;;;;5063587;28;20029;-79
2023/09/10 12:12:19;;;;;;;15.05;6.20;;;;;;;;;;5067710;28;20375;-77
2023/09/10 12:14:44;;;;;;;14.07;5.93;;;;;;;;;;5072273;28;20445;-79
2023/09/10 12:17:10;;;;;;;13.63;5.22;;;;;;;;;;5059915;28;20143;-79
2023/09/10 12:19:36;;;;;;;12.98;5.65;;;;;;;;;;5069129;28;20036;-79
2023/09/10 12:22:03;;;;;;;12.77;5.32;;;;;;;;;;5072191;28;20016;-79
2023/09/10 12:24:28;;;;;;;12.13;5.30;;;;;;;;;;5072181;28;20023;-79
2023/09/10 12:26:54;;;;;;;18.02;5.70;;;;;;;;;;5071965;28;20009;-79
2023/09/10 12:29:19;;;;;;;12.65;5.50;;;;;;;;;;5062335;28;20044;-79
2023/09/10 12:31:52;;;;;;;10.65;5.13;;;;;;;;;;5071821;28;20023;-80
2023/09/10 12:34:21;;;;;;;20.40;5.60;;;;;;;;;;5071331;28;20364;-79
2023/09/10 12:36:46;;;;;;;9.45;5.82;;;;;;;;;;5072107;28;20029;-80
2023/09/10 12:39:22;;;;;;;12.95;5.90;;;;;;;;;;5071542;28;20092;-79
2023/09/10 12:41:48;;;;;;;7.85;5.05;;;;;;;;;;5073108;28;20009;-79
2023/09/10 12:44:13;;;;;;;17.65;6.65;;;;;;;;;;5071516;28;20403;-78
2023/09/10 12:46:39;;;;;;;16.73;5.75;;;;;;;;;;5071668;28;20036;-79
2023/09/10 12:49:05;;;;;;;10.90;5.18;;;;;;;;;;5072556;28;20480;-78
2023/09/10 12:51:33;;;;;;;12.15;4.78;;;;;;;;;;5072785;28;20440;-79
2023/09/10 12:54:01;;;;;;;12.85;5.18;;;;;;;;;;5059190;28;20031;-79
2023/09/10 12:56:28;;;;;;;12.27;5.55;;;;;;;;;;5058544;28;20044;-79
2023/09/10 12:58:53;;;;;;;12.48;4.65;;;;;;;;;;5070106;28;20032;-79
2023/09/10 13:01:25;;;;;;;9.30;5.28;;;;;;;;;;5070745;28;20023;-79
2023/09/10 13:03:50;;;;;;;15.85;5.50;;;;;;;;;;5071433;28;20039;-80
2023/09/10 13:06:16;;;;;;;9.85;5.65;;;;;;;;;;5071562;28;20021;-79
2023/09/10 13:08:41;;;;;;;8.32;5.47;;;;;;;;;;5071332;28;20111;-79
2023/09/10 13:11:06;;;;;;;12.23;4.60;;;;;;;;;;5063585;28;20179;-80
2023/09/10 13:13:31;;;;;;;8.90;3.97;;;;;;;;;;5072795;28;20016;-79
2023/09/10 13:15:59;;;;;;;14.63;4.15;;;;;;;;;;5060976;28;20048;-79
2023/09/10 13:18:24;;;;;;;14.10;4.05;;;;;;;;;;5071232;28;20020;-79
2023/09/10 13:20:51;;;;;;;10.25;3.75;;;;;;;;;;5069680;28;20544;-80
2023/09/10 13:23:17;;;;;;;9.05;4.13;;;;;;;;;;5071165;28;20024;-79
2023/09/10 13:25:45;;;;;;;15.05;5.00;;;;;;;;;;5071009;28;20025;-79
2023/09/10 13:28:10;;;;;;;8.43;4.00;;;;;;;;;;5070958;28;20435;-79
2023/09/10 13:30:37;;;;;;;10.82;4.32;;;;;;;;;;5071369;28;20107;-79
2023/09/10 13:33:03;;;;;;;10.75;4.30;;;;;;;;;;5071021;28;20033;-79
2023/09/10 13:35:30;;;;;;;8.48;4.15;;;;;;;;;;5061753;28;20436;-79
2023/09/10 13:37:55;;;;;;;10.65;4.80;;;;;;;;;;5066783;28;20333;-79
2023/09/10 13:40:23;;;;;;;11.48;4.85;;;;;;;;;;5066715;28;20035;-79
2023/09/10 13:42:49;;;;;;;9.13;4.15;;;;;;;;;;5072279;28;20384;-79
2023/09/10 13:45:14;;;;;;;11.05;4.03;;;;;;;;;;5053112;28;20102;-79
2023/09/10 13:47:40;;;;;;;8.82;3.95;;;;;;;;;;5069998;28;20039;-79
2023/09/10 13:50:06;;;;;;;12.77;4.28;;;;;;;;;;5070460;28;20467;-79
2023/09/10 13:52:31;;;;;;;9.70;4.32;;;;;;;;;;5071860;28;20017;-80
2023/09/10 13:54:56;;;;;;;14.60;4.28;;;;;;;;;;5070445;28;20047;-79
2023/09/10 13:57:21;;;;;;;6.05;3.92;;;;;;;;;;5062025;28;20051;-79
2023/09/10 13:59:47;;;;;;;7.95;4.55;;;;;;;;;;5065206;28;20020;-79
2023/09/10 14:02:12;;;;;;;11.27;4.35;;;;;;;;;;5070704;28;20020;-79
2023/09/10 14:04:37;;;;;;;6.93;3.80;;;;;;;;;;5072569;28;20032;-79
2023/09/10 14:07:06;;;;;;;7.68;4.32;;;;;;;;;;5069864;28;20425;-79
2023/09/10 14:09:32;;;;;;;9.00;4.13;;;;;;;;;;5066081;28;20104;-79
2023/09/10 14:11:57;;;;;;;12.43;4.47;;;;;;;;;;5069469;28;20150;-79
2023/09/10 14:14:22;;;;;;;11.60;4.47;;;;;;;;;;5076495;28;20012;-79
2023/09/10 14:16:47;;;;;;;10.15;5.32;;;;;;;;;;5069874;28;20036;-79
2023/09/10 14:19:22;;;;;;;15.05;4.90;;;;;;;;;;5072076;28;20021;-79
2023/09/10 14:21:55;;;;;;;15.38;5.63;;;;;;;;;;5070735;28;20067;-79